sensor_id;sensor_type;location;lat;lon;timestamp;temperature;humidity
770;DHT22;368;48.698;9.116;2023-01-05T00:00:52;9.50;99.90
770;DHT22;368;48.698;9.116;2023-01-05T00:03:20;9.30;99.90
770;DHT22;368;48.698;9.116;2023-01-05T00:05:46;9.50;99.90
770;DHT22;368;48.698;9.116;2023-01-05T00:08:13;9.50;99.90
770;DHT22;368;48.698;9.116;2023-01-05T00:10:40;9.50;99.90
770;DHT22;368;48.698;9.116;2023-01-05T00:13:40;9.50;99.90
770;DHT22;368;48.698;9.116;2023-01-05T00:16:24;9.50;99.90
770;DHT22;368;48.698;9.116;2023-01-05T00:19:23;9.60;99.90
770;DHT22;368;48.698;9.116;2023-01-05T00:22:13;9.60;99.90
770;DHT22;368;48.698;9.116;2023-01-05T00:25:00;9.80;99.90
770;DHT22;368;48.698;9.116;2023-01-05T00:27:28;9.40;99.90
770;DHT22;368;48.698;9.116;2023-01-05T00:29:56;9.60;99.90
770;DHT22;368;48.698;9.116;2023-01-05T00:32:23;9.90;99.90
770;DHT22;368;48.698;9.116;2023-01-05T00:34:50;9.60;99.90
770;DHT22;368;48.698;9.116;2023-01-05T00:37:20;9.60;99.90
770;DHT22;368;48.698;9.116;2023-01-05T00:39:47;9.70;99.90
770;DHT22;368;48.698;9.116;2023-01-05T00:42:14;9.90;99.90
770;DHT22;368;48.698;9.116;2023-01-05T00:44:40;9.80;99.90
770;DHT22;368;48.698;9.116;2023-01-05T00:47:09;9.80;99.90
770;DHT22;368;48.698;9.116;2023-01-05T00:49:35;9.90;99.90
770;DHT22;368;48.698;9.116;2023-01-05T00:52:03;9.70;99.90
770;DHT22;368;48.698;9.116;2023-01-05T00:54:29;9.80;99.90
770;DHT22;368;48.698;9.116;2023-01-05T00:56:56;9.90;99.90
770;DHT22;368;48.698;9.116;2023-01-05T00:59:23;10.00;99.90
770;DHT22;368;48.698;9.116;2023-01-05T01:01:51;9.50;99.90
770;DHT22;368;48.698;9.116;2023-01-05T01:04:20;9.60;99.90
770;DHT22;368;48.698;9.116;2023-01-05T01:06:47;9.70;99.90
770;DHT22;368;48.698;9.116;2023-01-05T01:09:15;9.70;99.90
770;DHT22;368;48.698;9.116;2023-01-05T01:11:42;10.00;99.90
770;DHT22;368;48.698;9.116;2023-01-05T01:14:10;10.00;99.90
770;DHT22;368;48.698;9.116;2023-01-05T01:16:37;9.70;99.90
770;DHT22;368;48.698;9.116;2023-01-05T01:19:05;9.70;99.90
770;DHT22;368;48.698;9.116;2023-01-05T01:21:33;9.80;99.90
770;DHT22;368;48.698;9.116;2023-01-05T01:24:00;9.80;99.90
770;DHT22;368;48.698;9.116;2023-01-05T01:26:26;9.80;99.90
770;DHT22;368;48.698;9.116;2023-01-05T01:28:53;9.80;99.90
770;DHT22;368;48.698;9.116;2023-01-05T01:31:20;9.90;99.90
770;DHT22;368;48.698;9.116;2023-01-05T01:33:47;9.70;99.90
770;DHT22;368;48.698;9.116;2023-01-05T01:36:13;9.70;99.90
770;DHT22;368;48.698;9.116;2023-01-05T01:38:42;10.00;99.90
770;DHT22;368;48.698;9.116;2023-01-05T01:41:11;9.60;99.90
770;DHT22;368;48.698;9.116;2023-01-05T01:43:42;9.90;99.90
770;DHT22;368;48.698;9.116;2023-01-05T01:46:09;9.70;99.90
770;DHT22;368;48.698;9.116;2023-01-05T01:48:37;9.70;99.90
770;DHT22;368;48.698;9.116;2023-01-05T01:51:08;9.70;99.90
770;DHT22;368;48.698;9.116;2023-01-05T01:53:38;9.80;99.90
770;DHT22;368;48.698;9.116;2023-01-05T01:56:11;9.80;99.90
770;DHT22;368;48.698;9.116;2023-01-05T01:58:38;9.60;99.90
770;DHT22;368;48.698;9.116;2023-01-05T02:01:05;9.60;99.90
770;DHT22;368;48.698;9.116;2023-01-05T02:03:32;9.50;99.90
770;DHT22;368;48.698;9.116;2023-01-05T02:05:59;9.60;99.90
770;DHT22;368;48.698;9.116;2023-01-05T02:08:26;9.70;99.90
770;DHT22;368;48.698;9.116;2023-01-05T02:11:16;9.70;99.90
770;DHT22;368;48.698;9.116;2023-01-05T02:14:04;9.70;99.90
770;DHT22;368;48.698;9.116;2023-01-05T02:16:38;9.40;99.90
770;DHT22;368;48.698;9.116;2023-01-05T02:22:27;9.60;99.90
770;DHT22;368;48.698;9.116;2023-01-05T02:25:15;9.70;99.90
770;DHT22;368;48.698;9.116;2023-01-05T02:27:49;9.60;99.90
770;DHT22;368;48.698;9.116;2023-01-05T02:30:46;9.60;99.90
770;DHT22;368;48.698;9.116;2023-01-05T02:33:24;9.70;99.90
770;DHT22;368;48.698;9.116;2023-01-05T02:35:57;9.70;99.90
770;DHT22;368;48.698;9.116;2023-01-05T02:38:32;9.70;99.90
770;DHT22;368;48.698;9.116;2023-01-05T02:41:06;9.60;99.90
770;DHT22;368;48.698;9.116;2023-01-05T02:43:36;9.50;99.90
770;DHT22;368;48.698;9.116;2023-01-05T02:46:05;9.60;99.90
770;DHT22;368;48.698;9.116;2023-01-05T02:48:31;9.50;99.90
770;DHT22;368;48.698;9.116;2023-01-05T02:51:02;9.70;99.90
770;DHT22;368;48.698;9.116;2023-01-05T02:53:34;9.60;99.90
770;DHT22;368;48.698;9.116;2023-01-05T02:56:06;9.60;99.90
770;DHT22;368;48.698;9.116;2023-01-05T02:58:38;10.00;99.90
770;DHT22;368;48.698;9.116;2023-01-05T03:01:09;9.90;99.90
770;DHT22;368;48.698;9.116;2023-01-05T03:03:41;10.00;99.90
770;DHT22;368;48.698;9.116;2023-01-05T03:06:12;9.70;99.90
770;DHT22;368;48.698;9.116;2023-01-05T03:08:47;10.00;99.90
770;DHT22;368;48.698;9.116;2023-01-05T03:11:14;9.80;99.90
770;DHT22;368;48.698;9.116;2023-01-05T03:14:02;9.80;99.90
770;DHT22;368;48.698;9.116;2023-01-05T03:16:34;9.70;99.90
770;DHT22;368;48.698;9.116;2023-01-05T03:19:06;9.90;99.90
770;DHT22;368;48.698;9.116;2023-01-05T03:21:54;10.10;99.90
770;DHT22;368;48.698;9.116;2023-01-05T03:24:40;9.90;99.90
770;DHT22;368;48.698;9.116;2023-01-05T03:27:26;10.10;99.90
770;DHT22;368;48.698;9.116;2023-01-05T03:30:11;10.10;99.90
770;DHT22;368;48.698;9.116;2023-01-05T03:33:03;10.10;99.90
770;DHT22;368;48.698;9.116;2023-01-05T03:35:53;10.10;99.90
770;DHT22;368;48.698;9.116;2023-01-05T03:38:25;9.90;99.90
770;DHT22;368;48.698;9.116;2023-01-05T03:40:56;9.90;99.90
770;DHT22;368;48.698;9.116;2023-01-05T03:43:24;10.20;99.90
770;DHT22;368;48.698;9.116;2023-01-05T03:45:52;9.90;99.90
770;DHT22;368;48.698;9.116;2023-01-05T03:48:21;10.00;99.90
770;DHT22;368;48.698;9.116;2023-01-05T03:50:49;10.00;99.90
770;DHT22;368;48.698;9.116;2023-01-05T03:53:16;10.10;99.90
770;DHT22;368;48.698;9.116;2023-01-05T03:55:43;10.20;99.90
770;DHT22;368;48.698;9.116;2023-01-05T03:58:10;10.10;99.90
770;DHT22;368;48.698;9.116;2023-01-05T04:00:36;10.40;99.90
770;DHT22;368;48.698;9.116;2023-01-05T04:03:03;10.20;99.90
770;DHT22;368;48.698;9.116;2023-01-05T04:05:31;10.40;99.90
770;DHT22;368;48.698;9.116;2023-01-05T04:07:58;10.40;99.90
770;DHT22;368;48.698;9.116;2023-01-05T04:10:25;10.20;99.90
770;DHT22;368;48.698;9.116;2023-01-05T04:12:52;10.20;99.90
770;DHT22;368;48.698;9.116;2023-01-05T04:15:18;10.30;99.90
770;DHT22;368;48.698;9.116;2023-01-05T04:17:45;10.40;99.90
770;DHT22;368;48.698;9.116;2023-01-05T04:20:12;10.40;99.90
770;DHT22;368;48.698;9.116;2023-01-05T04:22:40;10.30;99.90
770;DHT22;368;48.698;9.116;2023-01-05T04:25:08;10.30;99.90
770;DHT22;368;48.698;9.116;2023-01-05T04:27:35;10.20;99.90
770;DHT22;368;48.698;9.116;2023-01-05T04:30:02;10.30;99.90
770;DHT22;368;48.698;9.116;2023-01-05T04:32:29;10.40;99.90
770;DHT22;368;48.698;9.116;2023-01-05T04:34:55;10.40;99.90
770;DHT22;368;48.698;9.116;2023-01-05T04:37:22;10.20;99.90
770;DHT22;368;48.698;9.116;2023-01-05T04:39:50;10.40;99.90
770;DHT22;368;48.698;9.116;2023-01-05T04:42:17;10.30;99.90
770;DHT22;368;48.698;9.116;2023-01-05T04:44:44;10.50;99.90
770;DHT22;368;48.698;9.116;2023-01-05T04:47:10;10.60;99.90
770;DHT22;368;48.698;9.116;2023-01-05T04:49:37;10.40;99.90
770;DHT22;368;48.698;9.116;2023-01-05T04:52:04;10.30;99.90
770;DHT22;368;48.698;9.116;2023-01-05T04:54:32;10.70;99.90
770;DHT22;368;48.698;9.116;2023-01-05T04:57:00;10.40;99.90
770;DHT22;368;48.698;9.116;2023-01-05T04:59:28;10.50;99.90
770;DHT22;368;48.698;9.116;2023-01-05T05:01:55;10.30;99.90
770;DHT22;368;48.698;9.116;2023-01-05T05:04:22;10.50;99.90
770;DHT22;368;48.698;9.116;2023-01-05T05:06:48;10.40;99.90
770;DHT22;368;48.698;9.116;2023-01-05T05:09:15;10.40;99.90
770;DHT22;368;48.698;9.116;2023-01-05T05:11:42;10.50;99.90
770;DHT22;368;48.698;9.116;2023-01-05T05:14:10;10.40;99.90
770;DHT22;368;48.698;9.116;2023-01-05T05:16:37;10.50;99.90
770;DHT22;368;48.698;9.116;2023-01-05T05:19:03;10.60;99.90
770;DHT22;368;48.698;9.116;2023-01-05T05:21:30;10.50;99.90
770;DHT22;368;48.698;9.116;2023-01-05T05:23:57;10.50;99.90
770;DHT22;368;48.698;9.116;2023-01-05T05:26:23;10.60;99.90
770;DHT22;368;48.698;9.116;2023-01-05T05:28:50;10.50;99.90
770;DHT22;368;48.698;9.116;2023-01-05T05:31:18;10.40;99.90
770;DHT22;368;48.698;9.116;2023-01-05T05:33:45;10.10;99.90
770;DHT22;368;48.698;9.116;2023-01-05T05:36:12;10.50;99.90
770;DHT22;368;48.698;9.116;2023-01-05T05:38:39;10.30;99.90
770;DHT22;368;48.698;9.116;2023-01-05T05:41:06;10.30;99.90
770;DHT22;368;48.698;9.116;2023-01-05T05:43:32;10.30;99.90
770;DHT22;368;48.698;9.116;2023-01-05T05:45:59;10.50;99.90
770;DHT22;368;48.698;9.116;2023-01-05T05:48:27;10.50;99.90
770;DHT22;368;48.698;9.116;2023-01-05T05:50:54;10.10;99.90
770;DHT22;368;48.698;9.116;2023-01-05T05:53:21;10.20;99.90
770;DHT22;368;48.698;9.116;2023-01-05T05:55:48;10.10;99.90
770;DHT22;368;48.698;9.116;2023-01-05T05:58:15;10.30;99.90
770;DHT22;368;48.698;9.116;2023-01-05T06:00:42;10.10;99.90
770;DHT22;368;48.698;9.116;2023-01-05T06:03:09;10.30;99.90
770;DHT22;368;48.698;9.116;2023-01-05T06:05:37;9.90;99.90
770;DHT22;368;48.698;9.116;2023-01-05T06:08:04;10.00;99.90
770;DHT22;368;48.698;9.116;2023-01-05T06:10:30;10.30;99.90
770;DHT22;368;48.698;9.116;2023-01-05T06:12:57;10.20;99.90
770;DHT22;368;48.698;9.116;2023-01-05T06:15:24;10.10;99.90
770;DHT22;368;48.698;9.116;2023-01-05T06:17:51;10.20;99.90
770;DHT22;368;48.698;9.116;2023-01-05T06:20:17;9.90;99.90
770;DHT22;368;48.698;9.116;2023-01-05T06:22:46;9.80;99.90
770;DHT22;368;48.698;9.116;2023-01-05T06:25:13;10.30;99.90
770;DHT22;368;48.698;9.116;2023-01-05T06:27:40;10.10;99.90
770;DHT22;368;48.698;9.116;2023-01-05T06:30:08;10.20;99.90
770;DHT22;368;48.698;9.116;2023-01-05T06:32:34;10.00;99.90
770;DHT22;368;48.698;9.116;2023-01-05T06:35:01;10.00;99.90
770;DHT22;368;48.698;9.116;2023-01-05T06:37:28;9.80;99.90
770;DHT22;368;48.698;9.116;2023-01-05T06:39:56;9.90;99.90
770;DHT22;368;48.698;9.116;2023-01-05T06:42:24;9.90;99.90
770;DHT22;368;48.698;9.116;2023-01-05T06:44:51;9.60;99.90
770;DHT22;368;48.698;9.116;2023-01-05T06:47:18;9.90;99.90
770;DHT22;368;48.698;9.116;2023-01-05T06:49:45;9.80;99.90
770;DHT22;368;48.698;9.116;2023-01-05T06:52:11;9.80;99.90
770;DHT22;368;48.698;9.116;2023-01-05T06:54:38;9.90;99.90
770;DHT22;368;48.698;9.116;2023-01-05T06:57:06;10.00;99.90
770;DHT22;368;48.698;9.116;2023-01-05T06:59:33;10.00;99.90
770;DHT22;368;48.698;9.116;2023-01-05T07:02:00;9.70;99.90
770;DHT22;368;48.698;9.116;2023-01-05T07:04:27;9.70;99.90
770;DHT22;368;48.698;9.116;2023-01-05T07:06:53;9.80;99.90
770;DHT22;368;48.698;9.116;2023-01-05T07:09:20;9.60;99.90
770;DHT22;368;48.698;9.116;2023-01-05T07:11:47;9.60;99.90
770;DHT22;368;48.698;9.116;2023-01-05T07:14:15;9.60;99.90
770;DHT22;368;48.698;9.116;2023-01-05T07:16:42;9.60;99.90
770;DHT22;368;48.698;9.116;2023-01-05T07:19:09;9.80;99.90
770;DHT22;368;48.698;9.116;2023-01-05T07:21:36;9.60;99.90
770;DHT22;368;48.698;9.116;2023-01-05T07:24:03;9.90;99.90
770;DHT22;368;48.698;9.116;2023-01-05T07:26:30;9.80;99.90
770;DHT22;368;48.698;9.116;2023-01-05T07:28:56;9.70;99.90
770;DHT22;368;48.698;9.116;2023-01-05T07:31:24;9.50;99.90
770;DHT22;368;48.698;9.116;2023-01-05T07:33:51;9.60;99.90
770;DHT22;368;48.698;9.116;2023-01-05T07:36:18;9.50;99.90
770;DHT22;368;48.698;9.116;2023-01-05T07:38:45;9.60;99.90
770;DHT22;368;48.698;9.116;2023-01-05T07:41:11;9.60;99.90
770;DHT22;368;48.698;9.116;2023-01-05T07:43:38;9.50;99.90
770;DHT22;368;48.698;9.116;2023-01-05T07:46:05;9.70;99.90
770;DHT22;368;48.698;9.116;2023-01-05T07:48:33;9.90;99.90
770;DHT22;368;48.698;9.116;2023-01-05T07:51:01;9.90;99.90
770;DHT22;368;48.698;9.116;2023-01-05T07:53:29;9.60;99.90
770;DHT22;368;48.698;9.116;2023-01-05T07:55:57;9.70;99.90
770;DHT22;368;48.698;9.116;2023-01-05T07:58:24;9.80;99.90
770;DHT22;368;48.698;9.116;2023-01-05T08:00:51;9.90;99.90
770;DHT22;368;48.698;9.116;2023-01-05T08:03:19;10.10;99.90
770;DHT22;368;48.698;9.116;2023-01-05T08:05:47;10.10;99.90
770;DHT22;368;48.698;9.116;2023-01-05T08:08:14;9.90;99.90
770;DHT22;368;48.698;9.116;2023-01-05T08:10:42;9.80;99.90
770;DHT22;368;48.698;9.116;2023-01-05T08:13:10;9.80;99.90
770;DHT22;368;48.698;9.116;2023-01-05T08:15:56;9.70;99.90
770;DHT22;368;48.698;9.116;2023-01-05T08:18:25;9.80;99.90
770;DHT22;368;48.698;9.116;2023-01-05T08:20:55;9.80;99.90
770;DHT22;368;48.698;9.116;2023-01-05T08:23:24;9.70;99.90
770;DHT22;368;48.698;9.116;2023-01-05T08:25:51;10.00;99.90
770;DHT22;368;48.698;9.116;2023-01-05T08:28:18;9.70;99.90
770;DHT22;368;48.698;9.116;2023-01-05T08:30:45;10.20;99.90
770;DHT22;368;48.698;9.116;2023-01-05T08:33:12;9.90;99.90
770;DHT22;368;48.698;9.116;2023-01-05T08:35:39;10.20;99.90
770;DHT22;368;48.698;9.116;2023-01-05T08:38:08;10.00;99.90
770;DHT22;368;48.698;9.116;2023-01-05T08:40:35;10.00;99.90
770;DHT22;368;48.698;9.116;2023-01-05T08:43:02;10.10;99.90
770;DHT22;368;48.698;9.116;2023-01-05T08:45:29;10.00;99.90
770;DHT22;368;48.698;9.116;2023-01-05T08:47:56;10.10;99.90
770;DHT22;368;48.698;9.116;2023-01-05T08:50:22;10.20;99.90
770;DHT22;368;48.698;9.116;2023-01-05T08:52:50;10.10;99.90
770;DHT22;368;48.698;9.116;2023-01-05T08:55:18;10.20;99.90
770;DHT22;368;48.698;9.116;2023-01-05T08:57:45;10.10;99.90
770;DHT22;368;48.698;9.116;2023-01-05T09:00:13;10.30;99.90
770;DHT22;368;48.698;9.116;2023-01-05T09:02:41;10.30;99.90
770;DHT22;368;48.698;9.116;2023-01-05T09:05:09;10.10;99.90
770;DHT22;368;48.698;9.116;2023-01-05T09:07:35;10.00;99.90
770;DHT22;368;48.698;9.116;2023-01-05T09:10:03;10.40;99.90
770;DHT22;368;48.698;9.116;2023-01-05T09:12:31;10.00;99.90
770;DHT22;368;48.698;9.116;2023-01-05T09:14:58;10.00;99.90
770;DHT22;368;48.698;9.116;2023-01-05T09:17:25;10.00;99.90
770;DHT22;368;48.698;9.116;2023-01-05T09:19:52;10.10;99.90
770;DHT22;368;48.698;9.116;2023-01-05T09:22:18;10.10;99.90
770;DHT22;368;48.698;9.116;2023-01-05T09:24:46;10.20;99.90
770;DHT22;368;48.698;9.116;2023-01-05T09:27:13;10.00;99.90
770;DHT22;368;48.698;9.116;2023-01-05T09:29:41;10.10;99.90
770;DHT22;368;48.698;9.116;2023-01-05T09:32:07;10.20;99.90
770;DHT22;368;48.698;9.116;2023-01-05T09:34:35;10.10;99.90
770;DHT22;368;48.698;9.116;2023-01-05T09:37:02;9.90;99.90
770;DHT22;368;48.698;9.116;2023-01-05T09:39:29;10.00;99.90
770;DHT22;368;48.698;9.116;2023-01-05T09:41:57;10.10;99.90
770;DHT22;368;48.698;9.116;2023-01-05T09:44:29;10.00;99.90
770;DHT22;368;48.698;9.116;2023-01-05T09:47:00;10.10;99.90
770;DHT22;368;48.698;9.116;2023-01-05T09:49:29;10.50;99.90
770;DHT22;368;48.698;9.116;2023-01-05T09:52:00;10.40;99.90
770;DHT22;368;48.698;9.116;2023-01-05T09:54:30;10.40;99.90
770;DHT22;368;48.698;9.116;2023-01-05T09:56:58;10.40;99.90
770;DHT22;368;48.698;9.116;2023-01-05T09:59:28;10.20;99.90
770;DHT22;368;48.698;9.116;2023-01-05T10:02:00;10.80;99.90
770;DHT22;368;48.698;9.116;2023-01-05T10:04:29;10.60;99.90
770;DHT22;368;48.698;9.116;2023-01-05T10:07:00;10.70;99.90
770;DHT22;368;48.698;9.116;2023-01-05T10:09:30;10.80;99.90
770;DHT22;368;48.698;9.116;2023-01-05T10:12:01;10.90;99.90
770;DHT22;368;48.698;9.116;2023-01-05T10:14:47;11.00;99.90
770;DHT22;368;48.698;9.116;2023-01-05T10:17:19;11.00;99.90
770;DHT22;368;48.698;9.116;2023-01-05T10:19:47;10.90;99.90
770;DHT22;368;48.698;9.116;2023-01-05T10:22:34;10.80;99.90
770;DHT22;368;48.698;9.116;2023-01-05T10:25:04;10.70;99.90
770;DHT22;368;48.698;9.116;2023-01-05T10:27:38;10.80;99.90
770;DHT22;368;48.698;9.116;2023-01-05T10:30:14;10.90;99.90
770;DHT22;368;48.698;9.116;2023-01-05T10:32:54;10.80;99.90
770;DHT22;368;48.698;9.116;2023-01-05T10:35:35;11.10;99.90
770;DHT22;368;48.698;9.116;2023-01-05T10:38:12;11.10;99.90
770;DHT22;368;48.698;9.116;2023-01-05T10:40:50;11.40;99.90
770;DHT22;368;48.698;9.116;2023-01-05T10:43:33;11.50;99.90
770;DHT22;368;48.698;9.116;2023-01-05T10:46:04;11.30;99.90
770;DHT22;368;48.698;9.116;2023-01-05T10:48:35;11.10;99.90
770;DHT22;368;48.698;9.116;2023-01-05T10:51:03;11.40;99.90
770;DHT22;368;48.698;9.116;2023-01-05T10:53:33;11.30;99.90
770;DHT22;368;48.698;9.116;2023-01-05T10:56:02;11.40;99.90
770;DHT22;368;48.698;9.116;2023-01-05T10:58:31;11.70;99.90
770;DHT22;368;48.698;9.116;2023-01-05T11:01:00;11.80;99.90
770;DHT22;368;48.698;9.116;2023-01-05T11:03:33;11.90;99.90
770;DHT22;368;48.698;9.116;2023-01-05T11:06:02;11.50;99.90
770;DHT22;368;48.698;9.116;2023-01-05T11:08:30;11.80;99.90
770;DHT22;368;48.698;9.116;2023-01-05T11:10:59;11.60;99.90
770;DHT22;368;48.698;9.116;2023-01-05T11:13:32;11.60;99.90
770;DHT22;368;48.698;9.116;2023-01-05T11:16:08;11.40;99.90
770;DHT22;368;48.698;9.116;2023-01-05T11:18:45;11.50;99.90
770;DHT22;368;48.698;9.116;2023-01-05T11:21:16;11.40;99.90
770;DHT22;368;48.698;9.116;2023-01-05T11:23:44;11.50;99.90
770;DHT22;368;48.698;9.116;2023-01-05T11:26:30;11.20;99.90
770;DHT22;368;48.698;9.116;2023-01-05T11:29:03;11.10;99.90
770;DHT22;368;48.698;9.116;2023-01-05T11:31:37;11.20;99.90
770;DHT22;368;48.698;9.116;2023-01-05T11:34:14;10.90;99.90
770;DHT22;368;48.698;9.116;2023-01-05T11:36:50;10.80;99.90
770;DHT22;368;48.698;9.116;2023-01-05T11:39:25;11.30;99.90
770;DHT22;368;48.698;9.116;2023-01-05T11:42:13;11.20;99.90
770;DHT22;368;48.698;9.116;2023-01-05T11:44:42;11.30;99.90
770;DHT22;368;48.698;9.116;2023-01-05T11:47:19;10.90;99.90
770;DHT22;368;48.698;9.116;2023-01-05T11:49:48;11.10;99.90
770;DHT22;368;48.698;9.116;2023-01-05T11:52:26;11.20;99.90
770;DHT22;368;48.698;9.116;2023-01-05T11:54:53;11.50;99.90
770;DHT22;368;48.698;9.116;2023-01-05T11:57:21;11.60;99.90
770;DHT22;368;48.698;9.116;2023-01-05T11:59:48;11.50;99.90
770;DHT22;368;48.698;9.116;2023-01-05T12:02:58;11.50;99.90
770;DHT22;368;48.698;9.116;2023-01-05T12:05:35;11.70;99.90
770;DHT22;368;48.698;9.116;2023-01-05T12:08:10;11.50;99.90
770;DHT22;368;48.698;9.116;2023-01-05T12:10:49;11.80;99.90
770;DHT22;368;48.698;9.116;2023-01-05T12:13:44;11.70;99.90
770;DHT22;368;48.698;9.116;2023-01-05T12:16:24;11.70;99.90
770;DHT22;368;48.698;9.116;2023-01-05T12:22:12;11.90;99.90
770;DHT22;368;48.698;9.116;2023-01-05T12:24:58;12.10;99.90
770;DHT22;368;48.698;9.116;2023-01-05T12:27:38;12.20;99.90
770;DHT22;368;48.698;9.116;2023-01-05T12:30:20;12.30;99.90
770;DHT22;368;48.698;9.116;2023-01-05T12:33:12;12.00;99.90
770;DHT22;368;48.698;9.116;2023-01-05T12:35:50;11.60;99.90
770;DHT22;368;48.698;9.116;2023-01-05T12:38:36;11.30;99.90
770;DHT22;368;48.698;9.116;2023-01-05T12:41:33;11.40;99.90
770;DHT22;368;48.698;9.116;2023-01-05T12:44:22;11.20;99.90
770;DHT22;368;48.698;9.116;2023-01-05T12:47:03;11.50;99.90
770;DHT22;368;48.698;9.116;2023-01-05T12:49:38;11.70;99.90
770;DHT22;368;48.698;9.116;2023-01-05T12:52:11;11.60;99.90
770;DHT22;368;48.698;9.116;2023-01-05T12:54:43;12.00;99.90
770;DHT22;368;48.698;9.116;2023-01-05T12:57:16;11.80;99.90
770;DHT22;368;48.698;9.116;2023-01-05T12:59:50;11.30;99.90
770;DHT22;368;48.698;9.116;2023-01-05T13:02:26;11.40;99.90
770;DHT22;368;48.698;9.116;2023-01-05T13:04:56;11.30;99.90
770;DHT22;368;48.698;9.116;2023-01-05T13:07:32;11.30;99.90
770;DHT22;368;48.698;9.116;2023-01-05T13:10:01;11.50;99.90
770;DHT22;368;48.698;9.116;2023-01-05T13:12:31;11.50;99.90
770;DHT22;368;48.698;9.116;2023-01-05T13:15:05;11.30;99.90
770;DHT22;368;48.698;9.116;2023-01-05T13:17:34;11.60;99.90
770;DHT22;368;48.698;9.116;2023-01-05T13:20:04;11.50;99.90
770;DHT22;368;48.698;9.116;2023-01-05T13:22:39;11.80;99.90
770;DHT22;368;48.698;9.116;2023-01-05T13:25:16;11.70;99.90
770;DHT22;368;48.698;9.116;2023-01-05T13:27:45;11.60;99.90
770;DHT22;368;48.698;9.116;2023-01-05T13:30:19;11.70;99.90
770;DHT22;368;48.698;9.116;2023-01-05T13:33:14;11.40;99.90
770;DHT22;368;48.698;9.116;2023-01-05T13:36:00;11.30;99.90
770;DHT22;368;48.698;9.116;2023-01-05T13:39:07;11.30;99.90
770;DHT22;368;48.698;9.116;2023-01-05T13:42:07;11.30;99.90
770;DHT22;368;48.698;9.116;2023-01-05T13:44:54;11.30;99.90
770;DHT22;368;48.698;9.116;2023-01-05T13:47:37;11.20;99.90
770;DHT22;368;48.698;9.116;2023-01-05T13:50:26;11.30;99.90
770;DHT22;368;48.698;9.116;2023-01-05T13:53:08;11.10;99.90
770;DHT22;368;48.698;9.116;2023-01-05T13:55:41;11.20;99.90
770;DHT22;368;48.698;9.116;2023-01-05T14:01:11;11.20;99.90
770;DHT22;368;48.698;9.116;2023-01-05T14:03:50;11.00;99.90
770;DHT22;368;48.698;9.116;2023-01-05T14:06:20;11.20;99.90
770;DHT22;368;48.698;9.116;2023-01-05T14:08:52;11.10;99.90
770;DHT22;368;48.698;9.116;2023-01-05T14:11:22;11.00;99.90
770;DHT22;368;48.698;9.116;2023-01-05T14:13:51;10.80;99.90
770;DHT22;368;48.698;9.116;2023-01-05T14:16:52;10.90;99.90
770;DHT22;368;48.698;9.116;2023-01-05T14:19:21;10.90;99.90
770;DHT22;368;48.698;9.116;2023-01-05T14:21:59;11.00;99.90
770;DHT22;368;48.698;9.116;2023-01-05T14:24:29;10.80;99.90
770;DHT22;368;48.698;9.116;2023-01-05T14:27:14;11.00;99.90
770;DHT22;368;48.698;9.116;2023-01-05T14:30:20;10.80;99.90
770;DHT22;368;48.698;9.116;2023-01-05T14:32:53;11.20;99.90
770;DHT22;368;48.698;9.116;2023-01-05T14:35:27;11.00;99.90
770;DHT22;368;48.698;9.116;2023-01-05T14:37:57;10.90;99.90
770;DHT22;368;48.698;9.116;2023-01-05T14:40:35;11.10;99.90
770;DHT22;368;48.698;9.116;2023-01-05T14:43:05;10.90;99.90
770;DHT22;368;48.698;9.116;2023-01-05T14:45:34;11.00;99.90
770;DHT22;368;48.698;9.116;2023-01-05T14:48:05;10.80;99.90
770;DHT22;368;48.698;9.116;2023-01-05T14:50:34;10.80;99.90
770;DHT22;368;48.698;9.116;2023-01-05T14:53:05;10.50;99.90
770;DHT22;368;48.698;9.116;2023-01-05T14:55:37;10.60;99.90
770;DHT22;368;48.698;9.116;2023-01-05T14:58:09;10.70;99.90
770;DHT22;368;48.698;9.116;2023-01-05T15:00:44;10.70;99.90
770;DHT22;368;48.698;9.116;2023-01-05T15:03:27;10.80;99.90
770;DHT22;368;48.698;9.116;2023-01-05T15:06:02;10.60;99.90
770;DHT22;368;48.698;9.116;2023-01-05T15:11:47;10.60;99.90
770;DHT22;368;48.698;9.116;2023-01-05T15:14:49;10.60;99.90
770;DHT22;368;48.698;9.116;2023-01-05T15:23:20;10.70;99.90
770;DHT22;368;48.698;9.116;2023-01-05T15:26:15;10.70;99.90
770;DHT22;368;48.698;9.116;2023-01-05T15:31:42;10.30;99.90
770;DHT22;368;48.698;9.116;2023-01-05T15:34:17;10.30;99.90
770;DHT22;368;48.698;9.116;2023-01-05T15:36:50;10.40;99.90
770;DHT22;368;48.698;9.116;2023-01-05T15:39:28;10.30;99.90
770;DHT22;368;48.698;9.116;2023-01-05T15:41:58;10.40;99.90
770;DHT22;368;48.698;9.116;2023-01-05T15:44:30;10.60;99.90
770;DHT22;368;48.698;9.116;2023-01-05T15:47:00;10.40;99.90
770;DHT22;368;48.698;9.116;2023-01-05T15:49:30;10.50;99.90
770;DHT22;368;48.698;9.116;2023-01-05T15:51:59;10.60;99.90
770;DHT22;368;48.698;9.116;2023-01-05T15:54:28;10.60;99.90
770;DHT22;368;48.698;9.116;2023-01-05T15:56:56;10.50;99.90
770;DHT22;368;48.698;9.116;2023-01-05T15:59:28;10.50;99.90
770;DHT22;368;48.698;9.116;2023-01-05T16:01:55;10.50;99.90
770;DHT22;368;48.698;9.116;2023-01-05T16:04:22;10.40;99.90
770;DHT22;368;48.698;9.116;2023-01-05T16:06:54;10.30;99.90
770;DHT22;368;48.698;9.116;2023-01-05T16:09:26;10.50;99.90
770;DHT22;368;48.698;9.116;2023-01-05T16:11:57;10.40;99.90
770;DHT22;368;48.698;9.116;2023-01-05T16:14:28;10.20;99.90
770;DHT22;368;48.698;9.116;2023-01-05T16:17:00;10.30;99.90
770;DHT22;368;48.698;9.116;2023-01-05T16:19:32;10.10;99.90
770;DHT22;368;48.698;9.116;2023-01-05T16:22:05;10.50;99.90
770;DHT22;368;48.698;9.116;2023-01-05T16:24:39;10.30;99.90
770;DHT22;368;48.698;9.116;2023-01-05T16:27:11;10.40;99.90
770;DHT22;368;48.698;9.116;2023-01-05T16:29:40;10.30;99.90
770;DHT22;368;48.698;9.116;2023-01-05T16:32:34;10.20;99.90
770;DHT22;368;48.698;9.116;2023-01-05T16:35:30;10.20;99.90
770;DHT22;368;48.698;9.116;2023-01-05T16:38:12;10.10;99.90
770;DHT22;368;48.698;9.116;2023-01-05T16:43:44;10.30;99.90
770;DHT22;368;48.698;9.116;2023-01-05T16:46:44;10.30;99.90
770;DHT22;368;48.698;9.116;2023-01-05T16:49:30;10.20;99.90
770;DHT22;368;48.698;9.116;2023-01-05T16:51:59;10.30;99.90
770;DHT22;368;48.698;9.116;2023-01-05T16:54:29;10.30;99.90
770;DHT22;368;48.698;9.116;2023-01-05T16:57:03;10.30;99.90
770;DHT22;368;48.698;9.116;2023-01-05T16:59:41;10.10;99.90
770;DHT22;368;48.698;9.116;2023-01-05T17:02:40;10.10;99.90
770;DHT22;368;48.698;9.116;2023-01-05T17:05:08;10.30;99.90
770;DHT22;368;48.698;9.116;2023-01-05T17:07:37;10.10;99.90
770;DHT22;368;48.698;9.116;2023-01-05T17:10:06;10.40;99.90
770;DHT22;368;48.698;9.116;2023-01-05T17:12:40;10.20;99.90
770;DHT22;368;48.698;9.116;2023-01-05T17:15:07;10.20;99.90
770;DHT22;368;48.698;9.116;2023-01-05T17:17:40;10.20;99.90
770;DHT22;368;48.698;9.116;2023-01-05T17:20:10;9.90;99.90
770;DHT22;368;48.698;9.116;2023-01-05T17:22:37;10.00;99.90
770;DHT22;368;48.698;9.116;2023-01-05T17:25:05;10.00;99.90
770;DHT22;368;48.698;9.116;2023-01-05T17:27:31;10.10;99.90
770;DHT22;368;48.698;9.116;2023-01-05T17:29:59;10.20;99.90
770;DHT22;368;48.698;9.116;2023-01-05T17:32:26;10.10;99.90
770;DHT22;368;48.698;9.116;2023-01-05T17:34:53;10.00;99.90